sensor_id;sensor_type;location;lat;lon;timestamp;pressure;altitude;pressure_sealevel;temperature;humidity
9249;BME280;4660;41.768;26.198;2023-04-10T00:01:32;101016.69;;;7.25;100.00
9249;BME280;4660;41.768;26.198;2023-04-10T00:04:01;101005.53;;;7.07;100.00
9249;BME280;4660;41.768;26.198;2023-04-10T00:06:27;101002.03;;;6.94;100.00
9249;BME280;4660;41.768;26.198;2023-04-10T00:08:52;101006.19;;;6.85;100.00
9249;BME280;4660;41.768;26.198;2023-04-10T00:11:18;101003.44;;;6.74;100.00
9249;BME280;4660;41.768;26.198;2023-04-10T00:13:46;100996.91;;;6.78;100.00
9249;BME280;4660;41.768;26.198;2023-04-10T00:16:12;100984.56;;;6.65;100.00
9249;BME280;4660;41.768;26.198;2023-04-10T00:18:37;100980.41;;;6.84;100.00
9249;BME280;4660;41.768;26.198;2023-04-10T00:21:06;100987.72;;;6.82;100.00
9249;BME280;4660;41.768;26.198;2023-04-10T00:23:32;100994.59;;;6.61;100.00
9249;BME280;4660;41.768;26.198;2023-04-10T00:25:59;100980.38;;;6.48;100.00
9249;BME280;4660;41.768;26.198;2023-04-10T00:28:25;100992.03;;;6.47;100.00
9249;BME280;4660;41.768;26.198;2023-04-10T00:30:51;100987.34;;;6.25;100.00
9249;BME280;4660;41.768;26.198;2023-04-10T00:33:16;100984.97;;;6.20;100.00
9249;BME280;4660;41.768;26.198;2023-04-10T00:35:42;100973.88;;;6.26;100.00
9249;BME280;4660;41.768;26.198;2023-04-10T00:38:07;100961.72;;;6.22;100.00
9249;BME280;4660;41.768;26.198;2023-04-10T00:40:33;100952.50;;;6.14;100.00
9249;BME280;4660;41.768;26.198;2023-04-10T00:42:59;100984.03;;;6.34;100.00
9249;BME280;4660;41.768;26.198;2023-04-10T00:45:25;100978.16;;;6.29;100.00
9249;BME280;4660;41.768;26.198;2023-04-10T00:47:51;100959.78;;;6.12;100.00
9249;BME280;4660;41.768;26.198;2023-04-10T00:50:17;100976.22;;;6.18;100.00
9249;BME280;4660;41.768;26.198;2023-04-10T00:52:43;100961.91;;;5.94;100.00
9249;BME280;4660;41.768;26.198;2023-04-10T00:55:09;100964.47;;;5.95;100.00
9249;BME280;4660;41.768;26.198;2023-04-10T00:57:36;100944.22;;;5.78;100.00
9249;BME280;4660;41.768;26.198;2023-04-10T01:00:02;100947.44;;;5.84;100.00
9249;BME280;4660;41.768;26.198;2023-04-10T01:02:29;100963.81;;;5.92;100.00
9249;BME280;4660;41.768;26.198;2023-04-10T01:04:54;100949.47;;;5.67;100.00
9249;BME280;4660;41.768;26.198;2023-04-10T01:16:00;100959.63;;;5.88;100.00
9249;BME280;4660;41.768;26.198;2023-04-10T01:21:05;100950.97;;;5.84;100.00
9249;BME280;4660;41.768;26.198;2023-04-10T01:23:53;100958.53;;;5.77;100.00
9249;BME280;4660;41.768;26.198;2023-04-10T01:29:13;100941.53;;;5.53;100.00
9249;BME280;4660;41.768;26.198;2023-04-10T01:31:51;100973.34;;;5.56;100.00
9249;BME280;4660;41.768;26.198;2023-04-10T01:34:23;100966.41;;;5.53;100.00
9249;BME280;4660;41.768;26.198;2023-04-10T01:37:00;100963.34;;;5.72;100.00
9249;BME280;4660;41.768;26.198;2023-04-10T01:39:26;100957.25;;;5.83;100.00
9249;BME280;4660;41.768;26.198;2023-04-10T01:41:54;100957.56;;;5.66;100.00
9249;BME280;4660;41.768;26.198;2023-04-10T01:44:27;100943.22;;;5.54;100.00
9249;BME280;4660;41.768;26.198;2023-04-10T01:46:54;100975.81;;;5.59;100.00
9249;BME280;4660;41.768;26.198;2023-04-10T01:49:22;100968.84;;;5.44;100.00
9249;BME280;4660;41.768;26.198;2023-04-10T01:51:50;100953.53;;;5.33;100.00
9249;BME280;4660;41.768;26.198;2023-04-10T01:54:16;100953.63;;;5.32;100.00
9249;BME280;4660;41.768;26.198;2023-04-10T01:56:42;100968.16;;;5.40;100.00
9249;BME280;4660;41.768;26.198;2023-04-10T01:59:08;100962.75;;;5.15;100.00
9249;BME280;4660;41.768;26.198;2023-04-10T02:01:33;100968.00;;;5.16;100.00
9249;BME280;4660;41.768;26.198;2023-04-10T02:04:00;100957.72;;;5.10;100.00
9249;BME280;4660;41.768;26.198;2023-04-10T02:09:05;100963.97;;;5.23;100.00
9249;BME280;4660;41.768;26.198;2023-04-10T02:11:54;100960.84;;;5.44;100.00
9249;BME280;4660;41.768;26.198;2023-04-10T02:14:24;100943.88;;;5.18;100.00
9249;BME280;4660;41.768;26.198;2023-04-10T02:16:54;100967.53;;;5.37;100.00
9249;BME280;4660;41.768;26.198;2023-04-10T02:19:21;100944.94;;;5.15;100.00
9249;BME280;4660;41.768;26.198;2023-04-10T02:21:48;100952.97;;;5.28;100.00
9249;BME280;4660;41.768;26.198;2023-04-10T02:24:14;100950.63;;;5.23;100.00
9249;BME280;4660;41.768;26.198;2023-04-10T02:26:46;100936.38;;;5.10;100.00
9249;BME280;4660;41.768;26.198;2023-04-10T02:29:12;100956.81;;;5.24;100.00
9249;BME280;4660;41.768;26.198;2023-04-10T02:31:39;100965.66;;;5.24;100.00
9249;BME280;4660;41.768;26.198;2023-04-10T02:34:05;100952.72;;;5.18;100.00
9249;BME280;4660;41.768;26.198;2023-04-10T02:36:31;100960.47;;;5.36;100.00
9249;BME280;4660;41.768;26.198;2023-04-10T02:38:57;100942.00;;;5.33;100.00
9249;BME280;4660;41.768;26.198;2023-04-10T02:41:23;100955.22;;;5.34;100.00
9249;BME280;4660;41.768;26.198;2023-04-10T02:43:48;100943.38;;;5.25;100.00
9249;BME280;4660;41.768;26.198;2023-04-10T02:46:14;100958.69;;;5.36;100.00
9249;BME280;4660;41.768;26.198;2023-04-10T02:48:39;100956.75;;;5.11;100.00
9249;BME280;4660;41.768;26.198;2023-04-10T02:51:05;100942.88;;;5.06;100.00
9249;BME280;4660;41.768;26.198;2023-04-10T02:53:32;100961.44;;;5.08;100.00
9249;BME280;4660;41.768;26.198;2023-04-10T02:55:57;100959.81;;;5.05;100.00
9249;BME280;4660;41.768;26.198;2023-04-10T02:58:23;100960.03;;;5.02;100.00
9249;BME280;4660;41.768;26.198;2023-04-10T03:00:49;100960.53;;;4.94;100.00
9249;BME280;4660;41.768;26.198;2023-04-10T03:03:15;100943.69;;;4.94;100.00
9249;BME280;4660;41.768;26.198;2023-04-10T03:05:41;100936.56;;;4.80;100.00
9249;BME280;4660;41.768;26.198;2023-04-10T03:08:06;100943.50;;;4.83;100.00
9249;BME280;4660;41.768;26.198;2023-04-10T03:10:32;100940.66;;;4.86;100.00
9249;BME280;4660;41.768;26.198;2023-04-10T03:12:57;100948.47;;;4.75;100.00
9249;BME280;4660;41.768;26.198;2023-04-10T03:15:23;100937.47;;;4.66;100.00
9249;BME280;4660;41.768;26.198;2023-04-10T03:17:48;100948.38;;;4.76;100.00
9249;BME280;4660;41.768;26.198;2023-04-10T03:20:14;100929.28;;;4.55;100.00
9249;BME280;4660;41.768;26.198;2023-04-10T03:22:40;100945.47;;;4.66;100.00
9249;BME280;4660;41.768;26.198;2023-04-10T03:25:05;100949.25;;;4.62;100.00
9249;BME280;4660;41.768;26.198;2023-04-10T03:27:31;100965.44;;;4.59;100.00
9249;BME280;4660;41.768;26.198;2023-04-10T03:29:59;100945.84;;;4.46;100.00
9249;BME280;4660;41.768;26.198;2023-04-10T03:32:25;100942.72;;;4.39;100.00
9249;BME280;4660;41.768;26.198;2023-04-10T03:34:52;100936.91;;;4.33;100.00
9249;BME280;4660;41.768;26.198;2023-04-10T03:37:18;100898.69;;;4.20;100.00
9249;BME280;4660;41.768;26.198;2023-04-10T03:39:44;100927.13;;;4.33;100.00
9249;BME280;4660;41.768;26.198;2023-04-10T03:42:09;100850.59;;;4.08;100.00
9249;BME280;4660;41.768;26.198;2023-04-10T03:44:36;100947.16;;;4.67;100.00
9249;BME280;4660;41.768;26.198;2023-04-10T03:47:02;100918.47;;;4.44;100.00
9249;BME280;4660;41.768;26.198;2023-04-10T03:49:27;100952.22;;;4.58;100.00
9249;BME280;4660;41.768;26.198;2023-04-10T03:51:53;100961.06;;;4.58;100.00
9249;BME280;4660;41.768;26.198;2023-04-10T03:54:18;100942.25;;;4.47;100.00
9249;BME280;4660;41.768;26.198;2023-04-10T03:56:44;100954.19;;;4.68;100.00
9249;BME280;4660;41.768;26.198;2023-04-10T03:59:10;100959.34;;;4.72;100.00
9249;BME280;4660;41.768;26.198;2023-04-10T04:01:36;100976.38;;;4.69;100.00
9249;BME280;4660;41.768;26.198;2023-04-10T04:04:01;100958.50;;;4.57;100.00
9249;BME280;4660;41.768;26.198;2023-04-10T04:06:28;100939.78;;;4.44;100.00
9249;BME280;4660;41.768;26.198;2023-04-10T04:08:56;100938.91;;;4.58;100.00
9249;BME280;4660;41.768;26.198;2023-04-10T04:11:21;100946.63;;;4.89;100.00
9249;BME280;4660;41.768;26.198;2023-04-10T04:13:48;100964.81;;;4.97;100.00
9249;BME280;4660;41.768;26.198;2023-04-10T04:16:16;100974.16;;;4.90;100.00
9249;BME280;4660;41.768;26.198;2023-04-10T04:18:41;100954.41;;;4.65;100.00
9249;BME280;4660;41.768;26.198;2023-04-10T04:21:07;100981.56;;;4.85;100.00
9249;BME280;4660;41.768;26.198;2023-04-10T04:23:33;100960.19;;;4.72;100.00
9249;BME280;4660;41.768;26.198;2023-04-10T04:26:02;100936.31;;;4.56;100.00
9249;BME280;4660;41.768;26.198;2023-04-10T04:28:28;100972.38;;;4.76;100.00
9249;BME280;4660;41.768;26.198;2023-04-10T04:30:54;100931.56;;;4.61;100.00
9249;BME280;4660;41.768;26.198;2023-04-10T04:33:19;100973.28;;;4.89;100.00
9249;BME280;4660;41.768;26.198;2023-04-10T04:35:45;100954.16;;;4.83;100.00
9249;BME280;4660;41.768;26.198;2023-04-10T04:38:14;100975.19;;;5.02;100.00
9249;BME280;4660;41.768;26.198;2023-04-10T04:40:42;100967.13;;;5.16;100.00
9249;BME280;4660;41.768;26.198;2023-04-10T04:43:09;100990.22;;;5.69;100.00
9249;BME280;4660;41.768;26.198;2023-04-10T04:45:36;100973.09;;;5.86;100.00
9249;BME280;4660;41.768;26.198;2023-04-10T04:48:13;100939.19;;;5.61;100.00
9249;BME280;4660;41.768;26.198;2023-04-10T04:50:41;100977.41;;;5.62;100.00
9249;BME280;4660;41.768;26.198;2023-04-10T04:53:08;100988.63;;;5.67;100.00
9249;BME280;4660;41.768;26.198;2023-04-10T04:55:37;100974.16;;;5.44;100.00
9249;BME280;4660;41.768;26.198;2023-04-10T04:58:03;100961.81;;;5.29;100.00
9249;BME280;4660;41.768;26.198;2023-04-10T05:00:29;100933.72;;;5.10;100.00
9249;BME280;4660;41.768;26.198;2023-04-10T05:02:56;100962.31;;;5.48;100.00
9249;BME280;4660;41.768;26.198;2023-04-10T05:05:22;100980.28;;;5.59;100.00
9249;BME280;4660;41.768;26.198;2023-04-10T05:07:48;100968.97;;;5.55;100.00
9249;BME280;4660;41.768;26.198;2023-04-10T05:10:13;100977.22;;;5.65;100.00
9249;BME280;4660;41.768;26.198;2023-04-10T05:12:42;100966.34;;;5.80;100.00
9249;BME280;4660;41.768;26.198;2023-04-10T05:15:08;100974.19;;;5.96;100.00
9249;BME280;4660;41.768;26.198;2023-04-10T05:17:33;100981.44;;;6.07;100.00
9249;BME280;4660;41.768;26.198;2023-04-10T05:19:59;100984.34;;;6.17;100.00
9249;BME280;4660;41.768;26.198;2023-04-10T05:22:25;100980.84;;;6.16;100.00
9249;BME280;4660;41.768;26.198;2023-04-10T05:24:52;100971.75;;;6.19;100.00
9249;BME280;4660;41.768;26.198;2023-04-10T05:27:20;100992.88;;;6.34;100.00
9249;BME280;4660;41.768;26.198;2023-04-10T05:29:45;100985.31;;;6.41;100.00
9249;BME280;4660;41.768;26.198;2023-04-10T05:32:12;100987.56;;;6.34;100.00
9249;BME280;4660;41.768;26.198;2023-04-10T05:34:38;100993.75;;;6.48;100.00
9249;BME280;4660;41.768;26.198;2023-04-10T05:37:04;100973.34;;;6.47;100.00
9249;BME280;4660;41.768;26.198;2023-04-10T05:39:30;100994.16;;;6.67;100.00
9249;BME280;4660;41.768;26.198;2023-04-10T05:41:56;100996.28;;;6.75;100.00
9249;BME280;4660;41.768;26.198;2023-04-10T05:44:23;100971.56;;;6.71;100.00
9249;BME280;4660;41.768;26.198;2023-04-10T05:46:50;100999.34;;;6.94;100.00
9249;BME280;4660;41.768;26.198;2023-04-10T05:49:16;100943.69;;;6.62;100.00
9249;BME280;4660;41.768;26.198;2023-04-10T05:51:41;100974.63;;;6.90;100.00
9249;BME280;4660;41.768;26.198;2023-04-10T05:54:07;101000.53;;;7.14;100.00
9249;BME280;4660;41.768;26.198;2023-04-10T05:56:33;100991.09;;;6.97;100.00
9249;BME280;4660;41.768;26.198;2023-04-10T05:59:00;101004.72;;;7.18;100.00
9249;BME280;4660;41.768;26.198;2023-04-10T06:01:27;100995.72;;;7.19;100.00
9249;BME280;4660;41.768;26.198;2023-04-10T06:03:52;100986.16;;;7.28;100.00
9249;BME280;4660;41.768;26.198;2023-04-10T06:06:19;100963.63;;;7.19;100.00
9249;BME280;4660;41.768;26.198;2023-04-10T06:08:45;101003.09;;;7.52;100.00
9249;BME280;4660;41.768;26.198;2023-04-10T06:11:11;100996.97;;;7.74;100.00
9249;BME280;4660;41.768;26.198;2023-04-10T06:13:36;100999.38;;;8.01;100.00
9249;BME280;4660;41.768;26.198;2023-04-10T06:16:02;101008.69;;;7.84;100.00
9249;BME280;4660;41.768;26.198;2023-04-10T06:18:29;100981.75;;;7.75;100.00
9249;BME280;4660;41.768;26.198;2023-04-10T06:20:54;101000.38;;;7.76;100.00
9249;BME280;4660;41.768;26.198;2023-04-10T06:23:22;101016.28;;;7.66;100.00
9249;BME280;4660;41.768;26.198;2023-04-10T06:25:50;100984.22;;;7.54;100.00
9249;BME280;4660;41.768;26.198;2023-04-10T06:28:15;100986.56;;;7.58;100.00
9249;BME280;4660;41.768;26.198;2023-04-10T06:30:41;101005.91;;;7.62;100.00
9249;BME280;4660;41.768;26.198;2023-04-10T06:33:06;100997.16;;;7.60;100.00
9249;BME280;4660;41.768;26.198;2023-04-10T06:35:32;100955.50;;;7.56;100.00
9249;BME280;4660;41.768;26.198;2023-04-10T06:37:58;100994.81;;;7.79;100.00
9249;BME280;4660;41.768;26.198;2023-04-10T06:40:24;100984.38;;;7.98;100.00
9249;BME280;4660;41.768;26.198;2023-04-10T06:42:49;100993.28;;;8.10;100.00
9249;BME280;4660;41.768;26.198;2023-04-10T06:45:15;101005.59;;;8.13;100.00
9249;BME280;4660;41.768;26.198;2023-04-10T06:47:40;100975.84;;;7.93;100.00
9249;BME280;4660;41.768;26.198;2023-04-10T06:50:06;100964.97;;;7.84;100.00
9249;BME280;4660;41.768;26.198;2023-04-10T06:52:32;101001.00;;;8.15;100.00
9249;BME280;4660;41.768;26.198;2023-04-10T06:54:58;100999.50;;;8.11;100.00
9249;BME280;4660;41.768;26.198;2023-04-10T06:57:23;101017.78;;;8.17;100.00
9249;BME280;4660;41.768;26.198;2023-04-10T06:59:49;101009.97;;;8.14;100.00
9249;BME280;4660;41.768;26.198;2023-04-10T07:02:14;100998.31;;;8.26;100.00
9249;BME280;4660;41.768;26.198;2023-04-10T07:04:41;101015.69;;;8.44;100.00
9249;BME280;4660;41.768;26.198;2023-04-10T07:07:06;100990.69;;;8.55;100.00
9249;BME280;4660;41.768;26.198;2023-04-10T07:09:34;101007.75;;;8.43;100.00
9249;BME280;4660;41.768;26.198;2023-04-10T07:11:59;101014.81;;;8.55;100.00
9249;BME280;4660;41.768;26.198;2023-04-10T07:14:25;101006.91;;;8.53;100.00
9249;BME280;4660;41.768;26.198;2023-04-10T07:16:51;101002.91;;;8.59;100.00
9249;BME280;4660;41.768;26.198;2023-04-10T07:19:18;100999.72;;;8.54;100.00
9249;BME280;4660;41.768;26.198;2023-04-10T07:21:44;101003.34;;;8.64;100.00
9249;BME280;4660;41.768;26.198;2023-04-10T07:24:09;100977.28;;;8.55;100.00
9249;BME280;4660;41.768;26.198;2023-04-10T07:26:35;100955.94;;;8.42;100.00
9249;BME280;4660;41.768;26.198;2023-04-10T07:29:02;100979.22;;;8.64;100.00
9249;BME280;4660;41.768;26.198;2023-04-10T07:31:27;100979.50;;;8.72;100.00
9249;BME280;4660;41.768;26.198;2023-04-10T07:33:54;100927.09;;;8.46;100.00
9249;BME280;4660;41.768;26.198;2023-04-10T07:36:21;101001.41;;;8.89;100.00
9249;BME280;4660;41.768;26.198;2023-04-10T07:38:46;100966.94;;;8.62;100.00
9249;BME280;4660;41.768;26.198;2023-04-10T07:41:12;100858.47;;;8.10;100.00
9249;BME280;4660;41.768;26.198;2023-04-10T07:43:39;100997.84;;;9.10;100.00
9249;BME280;4660;41.768;26.198;2023-04-10T07:46:07;100977.50;;;8.97;100.00
9249;BME280;4660;41.768;26.198;2023-04-10T07:48:35;100981.25;;;9.05;100.00
9249;BME280;4660;41.768;26.198;2023-04-10T07:51:01;100974.19;;;9.04;100.00
9249;BME280;4660;41.768;26.198;2023-04-10T07:53:29;100982.31;;;9.14;100.00
9249;BME280;4660;41.768;26.198;2023-04-10T07:55:55;100920.78;;;9.01;100.00
9249;BME280;4660;41.768;26.198;2023-04-10T07:58:21;100871.59;;;8.69;100.00
9249;BME280;4660;41.768;26.198;2023-04-10T08:00:46;100930.88;;;9.09;100.00
9249;BME280;4660;41.768;26.198;2023-04-10T08:03:14;100900.66;;;8.96;100.00
9249;BME280;4660;41.768;26.198;2023-04-10T08:05:40;100825.91;;;8.48;100.00
9249;BME280;4660;41.768;26.198;2023-04-10T08:08:05;100933.91;;;9.16;100.00
9249;BME280;4660;41.768;26.198;2023-04-10T08:10:31;100944.88;;;9.24;100.00
9249;BME280;4660;41.768;26.198;2023-04-10T08:12:57;100937.19;;;9.19;100.00
9249;BME280;4660;41.768;26.198;2023-04-10T08:15:23;100894.41;;;9.06;100.00
9249;BME280;4660;41.768;26.198;2023-04-10T08:17:48;100982.34;;;9.57;100.00
9249;BME280;4660;41.768;26.198;2023-04-10T08:20:14;100959.66;;;9.50;100.00
9249;BME280;4660;41.768;26.198;2023-04-10T08:22:42;100973.72;;;9.75;100.00
9249;BME280;4660;41.768;26.198;2023-04-10T08:25:11;100975.41;;;9.76;100.00
9249;BME280;4660;41.768;26.198;2023-04-10T08:27:40;100960.75;;;9.80;100.00
9249;BME280;4660;41.768;26.198;2023-04-10T08:30:06;100932.50;;;9.64;100.00
9249;BME280;4660;41.768;26.198;2023-04-10T08:32:32;100965.59;;;9.86;100.00
9249;BME280;4660;41.768;26.198;2023-04-10T08:34:57;100977.53;;;9.93;100.00
9249;BME280;4660;41.768;26.198;2023-04-10T08:37:24;100971.38;;;10.02;100.00
9249;BME280;4660;41.768;26.198;2023-04-10T08:39:52;100945.53;;;9.90;100.00
9249;BME280;4660;41.768;26.198;2023-04-10T08:42:20;100961.41;;;9.93;100.00
9249;BME280;4660;41.768;26.198;2023-04-10T08:44:48;100954.72;;;10.08;100.00
9249;BME280;4660;41.768;26.198;2023-04-10T08:47:19;100962.50;;;10.11;100.00
9249;BME280;4660;41.768;26.198;2023-04-10T08:49:52;100953.00;;;10.07;100.00
9249;BME280;4660;41.768;26.198;2023-04-10T08:52:23;100957.84;;;10.13;100.00
9249;BME280;4660;41.768;26.198;2023-04-10T08:54:55;100954.13;;;10.26;100.00
9249;BME280;4660;41.768;26.198;2023-04-10T08:57:23;100938.97;;;10.25;100.00
9249;BME280;4660;41.768;26.198;2023-04-10T08:59:51;100945.84;;;10.38;100.00
9249;BME280;4660;41.768;26.198;2023-04-10T09:02:17;100932.22;;;10.30;100.00
9249;BME280;4660;41.768;26.198;2023-04-10T09:04:47;100944.47;;;10.44;100.00
9249;BME280;4660;41.768;26.198;2023-04-10T09:07:13;100932.59;;;10.56;100.00
9249;BME280;4660;41.768;26.198;2023-04-10T09:09:43;100919.59;;;10.61;100.00
9249;BME280;4660;41.768;26.198;2023-04-10T09:12:12;100885.75;;;10.28;100.00
9249;BME280;4660;41.768;26.198;2023-04-10T09:14:39;100887.69;;;10.16;100.00
9249;BME280;4660;41.768;26.198;2023-04-10T09:17:18;100912.72;;;10.38;100.00
9249;BME280;4660;41.768;26.198;2023-04-10T09:19:52;100928.53;;;10.31;100.00
9249;BME280;4660;41.768;26.198;2023-04-10T09:22:32;100885.75;;;9.98;100.00
9249;BME280;4660;41.768;26.198;2023-04-10T09:24:59;100846.81;;;9.71;100.00
9249;BME280;4660;41.768;26.198;2023-04-10T09:27:33;100874.28;;;9.96;100.00
9249;BME280;4660;41.768;26.198;2023-04-10T09:30:06;100918.97;;;10.48;100.00
9249;BME280;4660;41.768;26.198;2023-04-10T09:32:43;100880.78;;;10.54;100.00
9249;BME280;4660;41.768;26.198;2023-04-10T09:35:12;100872.91;;;10.32;100.00
9249;BME280;4660;41.768;26.198;2023-04-10T09:37:38;100883.44;;;10.44;100.00
9249;BME280;4660;41.768;26.198;2023-04-10T09:40:05;100873.91;;;10.31;100.00
9249;BME280;4660;41.768;26.198;2023-04-10T09:42:43;100878.59;;;10.38;100.00
9249;BME280;4660;41.768;26.198;2023-04-10T09:45:09;100860.31;;;10.32;100.00
9249;BME280;4660;41.768;26.198;2023-04-10T09:47:34;100912.22;;;10.63;100.00
9249;BME280;4660;41.768;26.198;2023-04-10T09:50:00;100836.03;;;10.43;100.00
9249;BME280;4660;41.768;26.198;2023-04-10T09:52:31;100885.94;;;10.77;100.00
9249;BME280;4660;41.768;26.198;2023-04-10T09:55:04;100834.47;;;10.20;100.00
9249;BME280;4660;41.768;26.198;2023-04-10T09:57:34;100800.81;;;10.16;100.00
9249;BME280;4660;41.768;26.198;2023-04-10T10:00:02;100922.06;;;10.84;100.00
9249;BME280;4660;41.768;26.198;2023-04-10T10:02:29;100912.88;;;10.96;100.00
9249;BME280;4660;41.768;26.198;2023-04-10T10:04:57;100915.84;;;10.93;100.00
9249;BME280;4660;41.768;26.198;2023-04-10T10:07:26;100915.69;;;10.85;100.00
9249;BME280;4660;41.768;26.198;2023-04-10T10:09:52;100907.50;;;10.96;100.00
9249;BME280;4660;41.768;26.198;2023-04-10T10:12:23;100887.50;;;10.79;100.00
9249;BME280;4660;41.768;26.198;2023-04-10T10:15:00;100881.69;;;10.74;100.00
9249;BME280;4660;41.768;26.198;2023-04-10T10:17:34;100877.44;;;10.91;100.00
9249;BME280;4660;41.768;26.198;2023-04-10T10:20:07;100895.03;;;11.05;100.00
9249;BME280;4660;41.768;26.198;2023-04-10T10:22:34;100894.19;;;11.04;100.00
9249;BME280;4660;41.768;26.198;2023-04-10T10:25:01;100883.72;;;11.01;100.00
9249;BME280;4660;41.768;26.198;2023-04-10T10:27:27;100883.41;;;11.04;100.00
9249;BME280;4660;41.768;26.198;2023-04-10T10:29:55;100872.94;;;11.01;100.00
9249;BME280;4660;41.768;26.198;2023-04-10T10:32:24;100888.81;;;11.04;100.00
9249;BME280;4660;41.768;26.198;2023-04-10T10:34:51;100875.75;;;11.28;100.00
9249;BME280;4660;41.768;26.198;2023-04-10T10:37:21;100886.81;;;11.54;100.00
9249;BME280;4660;41.768;26.198;2023-04-10T10:45:20;100885.66;;;11.57;100.00
9249;BME280;4660;41.768;26.198;2023-04-10T10:47:51;100861.56;;;11.55;100.00
9249;BME280;4660;41.768;26.198;2023-04-10T10:50:17;100867.81;;;11.56;100.00
9249;BME280;4660;41.768;26.198;2023-04-10T10:52:45;100880.41;;;11.84;100.00
9249;BME280;4660;41.768;26.198;2023-04-10T10:55:27;100872.63;;;11.72;100.00
9249;BME280;4660;41.768;26.198;2023-04-10T10:58:03;100879.03;;;11.80;100.00
9249;BME280;4660;41.768;26.198;2023-04-10T11:08:15;100875.31;;;11.81;100.00
9249;BME280;4660;41.768;26.198;2023-04-10T11:11:21;100869.16;;;11.99;100.00
9249;BME280;4660;41.768;26.198;2023-04-10T11:19:05;100878.16;;;12.27;100.00
9249;BME280;4660;41.768;26.198;2023-04-10T11:21:32;100873.28;;;12.40;100.00
9249;BME280;4660;41.768;26.198;2023-04-10T11:29:02;100885.88;;;12.22;100.00
9249;BME280;4660;41.768;26.198;2023-04-10T11:31:28;100886.56;;;12.24;100.00
9249;BME280;4660;41.768;26.198;2023-04-10T11:34:07;100882.69;;;11.89;100.00
9249;BME280;4660;41.768;26.198;2023-04-10T11:36:36;100853.63;;;11.64;100.00
9249;BME280;4660;41.768;26.198;2023-04-10T11:39:14;100858.72;;;11.67;100.00
9249;BME280;4660;41.768;26.198;2023-04-10T11:41:53;100865.09;;;11.75;100.00
9249;BME280;4660;41.768;26.198;2023-04-10T11:44:31;100849.69;;;11.58;100.00
9249;BME280;4660;41.768;26.198;2023-04-10T11:46:59;100860.47;;;11.58;100.00
9249;BME280;4660;41.768;26.198;2023-04-10T11:49:28;100866.69;;;11.58;100.00
9249;BME280;4660;41.768;26.198;2023-04-10T11:51:54;100823.34;;;11.13;100.00
9249;BME280;4660;41.768;26.198;2023-04-10T11:54:22;100864.16;;;11.38;100.00
9249;BME280;4660;41.768;26.198;2023-04-10T11:59:27;100859.91;;;11.45;100.00
9249;BME280;4660;41.768;26.198;2023-04-10T12:02:11;100860.97;;;11.71;100.00
9249;BME280;4660;41.768;26.198;2023-04-10T12:04:57;100859.16;;;11.72;100.00
9249;BME280;4660;41.768;26.198;2023-04-10T12:07:23;100867.78;;;11.95;100.00
9249;BME280;4660;41.768;26.198;2023-04-10T12:09:55;100861.84;;;11.81;100.00
9249;BME280;4660;41.768;26.198;2023-04-10T12:12:34;100844.69;;;11.82;100.00
9249;BME280;4660;41.768;26.198;2023-04-10T12:15:02;100857.56;;;11.89;100.00
9249;BME280;4660;41.768;26.198;2023-04-10T12:17:28;100849.63;;;11.77;100.00
9249;BME280;4660;41.768;26.198;2023-04-10T12:19:54;100845.94;;;11.88;100.00
9249;BME280;4660;41.768;26.198;2023-04-10T12:22:20;100823.16;;;11.53;100.00
9249;BME280;4660;41.768;26.198;2023-04-10T12:24:48;100840.47;;;11.51;100.00
9249;BME280;4660;41.768;26.198;2023-04-10T12:27:25;100835.34;;;11.57;100.00
9249;BME280;4660;41.768;26.198;2023-04-10T12:29:53;100797.22;;;11.43;100.00
9249;BME280;4660;41.768;26.198;2023-04-10T12:32:19;100831.66;;;11.49;100.00
9249;BME280;4660;41.768;26.198;2023-04-10T12:34:55;100829.69;;;11.51;100.00
9249;BME280;4660;41.768;26.198;2023-04-10T12:37:49;100834.47;;;11.57;100.00
9249;BME280;4660;41.768;26.198;2023-04-10T12:40:15;100807.28;;;11.41;100.00
9249;BME280;4660;41.768;26.198;2023-04-10T12:42:42;100836.78;;;11.52;100.00
9249;BME280;4660;41.768;26.198;2023-04-10T12:45:08;100808.97;;;11.51;100.00
9249;BME280;4660;41.768;26.198;2023-04-10T12:47:45;100823.78;;;11.94;100.00
9249;BME280;4660;41.768;26.198;2023-04-10T12:50:16;100809.59;;;11.92;100.00
9249;BME280;4660;41.768;26.198;2023-04-10T12:52:44;100814.72;;;11.85;100.00
9249;BME280;4660;41.768;26.198;2023-04-10T12:55:17;100795.72;;;11.77;100.00
9249;BME280;4660;41.768;26.198;2023-04-10T12:57:44;100814.84;;;12.21;100.00
9249;BME280;4660;41.768;26.198;2023-04-10T13:00:16;100821.47;;;12.36;100.00
9249;BME280;4660;41.768;26.198;2023-04-10T13:02:43;100802.63;;;12.27;100.00
9249;BME280;4660;41.768;26.198;2023-04-10T13:05:11;100820.56;;;12.46;100.00
9249;BME280;4660;41.768;26.198;2023-04-10T13:07:37;100824.44;;;12.61;100.00
9249;BME280;4660;41.768;26.198;2023-04-10T13:10:04;100811.09;;;12.77;100.00
9249;BME280;4660;41.768;26.198;2023-04-10T13:12:30;100804.16;;;12.92;100.00
9249;BME280;4660;41.768;26.198;2023-04-10T13:15:08;100818.06;;;12.80;100.00
9249;BME280;4660;41.768;26.198;2023-04-10T13:17:36;100836.66;;;12.65;100.00
9249;BME280;4660;41.768;26.198;2023-04-10T13:20:02;100746.88;;;12.18;100.00
9249;BME280;4660;41.768;26.198;2023-04-10T13:22:29;100750.13;;;12.21;100.00
9249;BME280;4660;41.768;26.198;2023-04-10T13:24:55;100695.66;;;11.90;100.00
9249;BME280;4660;41.768;26.198;2023-04-10T13:27:21;100792.03;;;12.43;100.00
9249;BME280;4660;41.768;26.198;2023-04-10T13:29:51;100691.59;;;11.86;100.00
9249;BME280;4660;41.768;26.198;2023-04-10T13:32:17;100746.63;;;12.38;100.00
9249;BME280;4660;41.768;26.198;2023-04-10T13:34:42;100720.91;;;12.17;100.00
9249;BME280;4660;41.768;26.198;2023-04-10T13:37:09;100728.25;;;12.24;100.00
9249;BME280;4660;41.768;26.198;2023-04-10T13:39:37;100735.44;;;12.33;100.00
9249;BME280;4660;41.768;26.198;2023-04-10T13:42:06;100818.00;;;12.72;100.00
9249;BME280;4660;41.768;26.198;2023-04-10T13:44:37;100824.75;;;12.76;100.00